Pagina principale
METAR-TAF:

METAR-TAF

Aeroporti :

Aeroporto di Francistown

Francistown, Botswana

latitudine: 21-13S, longitudine: 027-30E, altezza: 1001 m

Osservazione

Il bollettino è stato emesso 6 ore e 44 minuti fa, alle 19:00 UTC
Vento 10 kt da est
Temperature 17°C
Umidità 100%
Pressione 1019 hPa
Visibilità: 8000 m
Nubi sparse ad un'altezza di 1500 ft
Nuvoloso ad un'altezza di 6500 ft
pioviggine

METAR: FBFT 051900Z 10010KT 8000 DZ SCT015 BKN065 17/17 Q1019

Ora: 03:44 (01:44 UTC)

Previsione

Il bollettino è stato emesso 13 ore e 44 minuti fa, alle 12:00 UTC
Previsione valida dal 05 alle 15 UTC al 05 alle 24 UTC
Vento 10 kt da est
Visibilità 10 km o più
Nubi sparse ad un'altezza di 2000 ft
Poco nuvoloso ad un'altezza di 3000 ft, Cumulonembo.
Nuvoloso ad un'altezza di 6500 ft
Probabilità 30% :
Temporaneamente
dal 05 alle 15 UTC al 05 alle 20 UTC

TAF: FBFT 051200Z 0515/0524 10010KT 9999 SCT020 FEW030CB BKN065 PROB30 TEMPO 0515/0520 TRSA

Osservazioni e previsioni meteorologiche di più di 4000 aeroporti (messaggi METAR e TAF).

Le stazioni disponibili sono rappresentate dai dischi gialli e rossi sulla carta.

Puntare il mouse per vedere il nome della stazione.

Clicca sopra per visualizzare le osservazioni e previsioni meteorologiche.

Per cambiare la mappa : fare clic sui pulsanti verdi con una croce nera per ingrandire, il pulsante verde con un trattino per diminuire, o sulla freccia verde per le mappe adiacenti.


METAR-TAF: